Time;durP1;ratioP1;P1;durP2;ratioP2;P2;SDS_P1;SDS_P2;PMS_P1;PMS_P2;Temp;Humidity;BMP_temperature;BMP_pressure;BME280_temperature;BME280_humidity;BME280_pressure;Samples;Min_cycle;Max_cycle;Signal;HPM_P1;HPM_P2
2023/07/02 00:00:55;;;;;;;3.93;2.90;;;18.30;98.00;;;;;;4976917;28;20472;-70
2023/07/02 00:03:22;;;;;;;3.90;2.37;;;18.20;98.00;;;;;;4976709;28;20596;-70
2023/07/02 00:05:50;;;;;;;4.10;2.50;;;18.20;98.00;;;;;;4975653;28;20544;-70
2023/07/02 00:08:20;;;;;;;3.83;2.57;;;18.20;98.00;;;;;;4975850;28;20457;-70
2023/07/02 00:10:47;;;;;;;4.47;2.27;;;18.10;98.00;;;;;;4976746;28;20465;-71
2023/07/02 00:13:16;;;;;;;3.10;2.20;;;18.10;98.00;;;;;;4976796;28;20467;-70
2023/07/02 00:15:43;;;;;;;3.53;2.40;;;18.20;98.00;;;;;;4976722;28;20527;-70
2023/07/02 00:18:10;;;;;;;3.70;2.83;;;18.20;98.00;;;;;;4976530;28;20461;-69
2023/07/02 00:20:37;;;;;;;3.27;2.10;;;18.10;98.00;;;;;;4976768;28;20527;-69
2023/07/02 00:23:04;;;;;;;3.10;2.30;;;18.10;98.00;;;;;;4976347;28;20888;-70
2023/07/02 00:25:33;;;;;;;4.37;2.67;;;18.20;98.00;;;;;;4976670;28;20476;-70
2023/07/02 00:28:01;;;;;;;3.90;2.47;;;18.10;98.00;;;;;;4975133;28;20532;-70
2023/07/02 00:30:28;;;;;;;4.33;2.50;;;18.10;98.00;;;;;;4975168;28;20468;-70
2023/07/02 00:32:55;;;;;;;4.23;2.57;;;18.00;98.00;;;;;;4976142;28;20619;-71
2023/07/02 00:35:23;;;;;;;8.33;2.33;;;18.10;98.00;;;;;;4976079;28;20457;-70
2023/07/02 00:37:50;;;;;;;4.03;2.50;;;18.10;98.00;;;;;;4975987;28;20461;-70
2023/07/02 00:40:17;;;;;;;3.03;2.40;;;18.10;98.00;;;;;;4975816;28;20461;-70
2023/07/02 00:42:46;;;;;;;4.10;2.50;;;18.00;98.00;;;;;;4974788;28;20468;-71
2023/07/02 00:45:13;;;;;;;3.03;2.20;;;18.00;98.00;;;;;;4975892;28;20888;-70
2023/07/02 00:47:40;;;;;;;2.97;2.23;;;17.90;98.00;;;;;;4975798;28;20527;-71
2023/07/02 00:50:09;;;;;;;4.87;2.53;;;17.80;98.00;;;;;;4974640;28;20465;-71
2023/07/02 00:52:36;;;;;;;3.80;2.70;;;18.00;98.00;;;;;;4975757;28;20449;-70
2023/07/02 00:55:03;;;;;;;4.53;2.60;;;18.00;98.00;;;;;;4975694;28;20532;-70
2023/07/02 00:57:30;;;;;;;4.10;2.50;;;17.80;98.00;;;;;;4975673;28;20795;-70
2023/07/02 01:00:00;;;;;;;4.30;2.77;;;17.90;98.00;;;;;;4975523;28;21109;-70
2023/07/02 01:02:30;;;;;;;3.77;2.50;;;17.80;98.00;;;;;;4975841;28;21130;-69
2023/07/02 01:04:59;;;;;;;3.70;2.47;;;17.80;98.00;;;;;;4975686;28;20584;-70
2023/07/02 01:07:26;;;;;;;3.87;2.47;;;17.80;98.00;;;;;;4975914;28;20460;-71
2023/07/02 01:09:54;;;;;;;4.33;2.67;;;17.70;98.00;;;;;;4975675;28;21020;-70
2023/07/02 01:12:22;;;;;;;5.67;3.00;;;17.60;98.00;;;;;;4975807;28;20461;-70
2023/07/02 01:14:52;;;;;;;3.87;2.67;;;17.50;98.00;;;;;;4974499;28;20555;-71
2023/07/02 01:17:23;;;;;;;4.20;2.80;;;17.50;98.00;;;;;;4975491;28;20476;-71
2023/07/02 01:19:53;;;;;;;3.80;2.63;;;17.50;98.00;;;;;;4975755;28;20878;-70
2023/07/02 01:22:22;;;;;;;4.53;2.80;;;17.50;98.00;;;;;;4975606;28;20515;-70
2023/07/02 01:24:54;;;;;;;6.30;2.60;;;17.40;98.00;;;;;;4975363;28;20485;-71
2023/07/02 01:27:22;;;;;;;3.80;2.30;;;17.50;98.00;;;;;;4975537;28;20484;-70
2023/07/02 01:29:52;;;;;;;5.20;2.53;;;17.70;98.00;;;;;;4973999;28;20881;-71
2023/07/02 01:32:21;;;;;;;3.00;2.33;;;17.70;98.00;;;;;;4975265;28;20468;-70
2023/07/02 01:34:48;;;;;;;4.63;2.53;;;17.70;98.00;;;;;;4974862;28;20552;-72
2023/07/02 01:37:18;;;;;;;4.73;2.40;;;17.70;98.00;;;;;;4974982;28;20903;-69
2023/07/02 01:39:45;;;;;;;4.80;2.90;;;17.70;98.00;;;;;;4973751;28;20466;-69
2023/07/02 01:42:15;;;;;;;3.80;2.00;;;17.70;98.00;;;;;;4974889;28;20469;-70
2023/07/02 01:44:43;;;;;;;3.77;2.57;;;17.70;98.00;;;;;;4974957;28;20515;-70
2023/07/02 01:47:13;;;;;;;6.03;2.53;;;17.70;98.00;;;;;;4974418;28;20457;-70
2023/07/02 01:49:40;;;;;;;3.83;2.60;;;17.80;98.00;;;;;;4974847;28;20480;-69
2023/07/02 01:52:08;;;;;;;5.30;2.33;;;17.80;98.00;;;;;;4973694;28;20457;-71
2023/07/02 01:54:37;;;;;;;3.30;2.33;;;17.90;98.00;;;;;;4974916;28;20469;-71
2023/07/02 01:57:05;;;;;;;3.70;2.40;;;17.80;98.00;;;;;;4974558;28;20461;-70
2023/07/02 01:59:33;;;;;;;3.13;2.13;;;17.70;98.00;;;;;;4974775;28;20493;-69
2023/07/02 02:02:00;;;;;;;4.20;2.60;;;17.80;98.00;;;;;;4974800;28;20461;-72
2023/07/02 02:04:28;;;;;;;9.07;2.60;;;17.80;98.00;;;;;;4957502;28;20489;-70
2023/07/02 02:06:55;;;;;;;4.87;2.50;;;17.70;98.00;;;;;;4954137;29;20525;-70
2023/07/02 02:09:22;;;;;;;4.93;2.70;;;17.60;98.00;;;;;;4955111;28;20462;-70
2023/07/02 02:11:52;;;;;;;4.40;2.30;;;17.60;98.00;;;;;;4955072;28;20462;-70
2023/07/02 02:14:19;;;;;;;3.40;2.30;;;17.40;98.00;;;;;;4955277;28;20541;-69
2023/07/02 02:16:46;;;;;;;4.13;2.47;;;17.40;98.00;;;;;;4955379;28;20463;-71
2023/07/02 02:19:14;;;;;;;3.33;2.27;;;17.50;98.00;;;;;;4953820;29;20897;-69
2023/07/02 02:21:41;;;;;;;4.27;2.70;;;17.50;98.00;;;;;;4955314;28;20937;-70
2023/07/02 02:24:09;;;;;;;3.50;2.30;;;17.60;98.00;;;;;;4954584;28;20501;-71
2023/07/02 02:26:36;;;;;;;3.63;2.37;;;17.50;98.00;;;;;;4954944;28;20458;-70
2023/07/02 02:29:05;;;;;;;4.80;2.63;;;17.40;98.00;;;;;;4954730;28;20517;-70
2023/07/02 02:31:32;;;;;;;3.33;2.50;;;17.40;98.00;;;;;;4954728;28;20895;-69
2023/07/02 02:33:59;;;;;;;3.20;2.30;;;17.50;98.00;;;;;;4954638;28;20464;-70
2023/07/02 02:36:26;;;;;;;4.20;2.53;;;17.50;98.00;;;;;;4954628;28;20470;-70
2023/07/02 02:38:53;;;;;;;3.80;2.40;;;17.50;98.00;;;;;;4954633;28;20466;-71
2023/07/02 02:41:20;;;;;;;3.10;2.20;;;17.40;98.00;;;;;;4953109;29;21136;-70
2023/07/02 02:43:47;;;;;;;4.73;2.47;;;17.30;98.00;;;;;;4954493;28;20489;-71
2023/07/02 02:46:21;;;;;;;3.63;2.33;;;17.20;98.00;;;;;;4954473;28;20467;-70
2023/07/02 02:48:48;;;;;;;3.80;2.30;;;17.30;98.00;;;;;;4954525;28;20501;-70
2023/07/02 02:51:15;;;;;;;3.80;2.50;;;17.40;98.00;;;;;;4954585;28;20466;-71
2023/07/02 02:53:43;;;;;;;3.10;2.17;;;17.50;98.00;;;;;;4953300;29;20514;-70
2023/07/02 02:56:11;;;;;;;7.30;2.40;;;17.40;98.00;;;;;;4954320;28;20469;-70
2023/07/02 02:58:38;;;;;;;3.00;2.00;;;17.30;98.00;;;;;;4954340;28;20458;-70
2023/07/02 03:01:10;;;;;;;3.70;2.33;;;17.20;98.00;;;;;;4954482;28;20941;-68
2023/07/02 03:03:39;;;;;;;3.93;2.33;;;17.20;98.00;;;;;;4954310;28;21004;-70
2023/07/02 03:06:06;;;;;;;3.63;2.07;;;17.20;98.00;;;;;;4954306;28;20478;-71
2023/07/02 03:08:33;;;;;;;3.73;2.30;;;17.20;98.00;;;;;;4954284;28;20525;-70
2023/07/02 03:11:00;;;;;;;3.87;2.67;;;17.20;98.00;;;;;;4953416;29;20471;-69
2023/07/02 03:13:27;;;;;;;4.53;2.20;;;17.20;98.00;;;;;;4952998;29;20451;-70
2023/07/02 03:15:54;;;;;;;2.53;2.07;;;17.30;98.00;;;;;;4954343;28;20462;-70
2023/07/02 03:18:21;;;;;;;2.93;2.17;;;17.30;98.00;;;;;;4953993;28;20521;-70
2023/07/02 03:20:50;;;;;;;3.90;2.30;;;17.30;98.00;;;;;;4952840;29;21027;-71
2023/07/02 03:23:17;;;;;;;4.50;2.40;;;17.20;98.00;;;;;;4953757;28;20474;-70
2023/07/02 03:25:44;;;;;;;4.00;2.47;;;17.20;98.00;;;;;;4954013;28;20494;-69
2023/07/02 03:28:11;;;;;;;5.70;2.53;;;17.10;98.00;;;;;;4952587;29;20458;-68
2023/07/02 03:30:38;;;;;;;4.53;2.20;;;17.10;98.00;;;;;;4952702;29;20873;-72
2023/07/02 03:33:05;;;;;;;2.83;2.20;;;17.10;98.00;;;;;;4953824;28;20458;-70
2023/07/02 03:35:33;;;;;;;3.50;2.27;;;17.20;98.00;;;;;;4953543;28;20466;-69
2023/07/02 03:38:02;;;;;;;2.73;1.90;;;17.20;98.00;;;;;;4954053;28;20466;-71
2023/07/02 03:40:29;;;;;;;3.50;2.20;;;17.30;98.00;;;;;;4953779;28;21000;-70
2023/07/02 03:42:56;;;;;;;2.70;2.10;;;17.30;98.00;;;;;;4953939;28;20450;-70
2023/07/02 03:45:23;;;;;;;2.83;2.17;;;17.60;98.00;;;;;;4953645;28;21011;-70
2023/07/02 03:47:50;;;;;;;6.37;2.30;;;17.80;98.00;;;;;;4952592;29;20873;-70
2023/07/02 03:50:17;;;;;;;2.63;1.90;;;17.80;98.00;;;;;;4953643;28;20458;-70
2023/07/02 03:52:47;;;;;;;5.13;2.73;;;17.80;98.00;;;;;;4953588;28;20458;-70
2023/07/02 03:55:16;;;;;;;4.37;2.80;;;17.70;98.00;;;;;;4952713;29;20470;-70
2023/07/02 03:57:43;;;;;;;4.47;2.87;;;17.60;98.00;;;;;;4953370;28;20991;-70
2023/07/02 04:00:11;;;;;;;6.53;3.10;;;17.60;98.00;;;;;;4952646;29;20466;-70
2023/07/02 04:02:38;;;;;;;4.80;3.07;;;17.40;98.00;;;;;;4953586;28;20482;-70
2023/07/02 04:05:06;;;;;;;4.93;2.50;;;17.10;98.00;;;;;;4954116;28;20976;-70
2023/07/02 04:07:34;;;;;;;4.07;2.70;;;17.00;98.00;;;;;;4953664;28;20490;-70
2023/07/02 04:10:01;;;;;;;5.80;2.90;;;16.70;98.00;;;;;;4954005;28;20484;-70
2023/07/02 04:12:30;;;;;;;6.00;3.40;;;16.60;98.00;;;;;;4953352;28;20956;-69
2023/07/02 04:14:58;;;;;;;4.30;3.00;;;16.50;98.00;;;;;;4953598;28;20470;-69
2023/07/02 04:17:25;;;;;;;4.57;3.10;;;16.30;98.00;;;;;;4953338;28;20458;-70
2023/07/02 04:19:57;;;;;;;5.33;3.10;;;16.30;98.00;;;;;;4953464;28;20494;-69
2023/07/02 04:22:24;;;;;;;7.40;3.67;;;16.30;98.00;;;;;;4953255;28;20469;-70
2023/07/02 04:24:51;;;;;;;9.73;3.83;;;16.30;98.00;;;;;;4953397;28;20903;-68
2023/07/02 04:27:19;;;;;;;5.10;2.90;;;16.30;98.00;;;;;;4953307;28;20462;-70
2023/07/02 04:29:47;;;;;;;5.80;3.10;;;16.30;98.00;;;;;;4951584;29;20462;-69
2023/07/02 04:32:15;;;;;;;5.23;3.00;;;16.40;98.00;;;;;;4953353;28;20474;-69
2023/07/02 04:34:42;;;;;;;6.30;3.40;;;16.40;98.00;;;;;;4956084;28;20458;-70
2023/07/02 04:37:11;;;;;;;5.00;3.30;;;16.50;98.00;;;;;;4956944;28;20459;-70
2023/07/02 04:39:38;;;;;;;5.20;3.23;;;16.50;98.00;;;;;;4956978;28;20983;-70
2023/07/02 04:42:05;;;;;;;8.23;3.00;;;16.50;98.00;;;;;;4955694;29;20513;-70
2023/07/02 04:44:32;;;;;;;4.93;2.90;;;16.60;98.00;;;;;;4957012;28;20513;-69
2023/07/02 04:47:02;;;;;;;8.20;3.57;;;16.70;98.00;;;;;;4956789;28;20472;-70
2023/07/02 04:49:29;;;;;;;4.80;3.20;;;16.70;98.00;;;;;;4956863;28;20549;-70
2023/07/02 04:51:56;;;;;;;9.50;3.40;;;16.70;98.00;;;;;;4956694;28;20528;-71
2023/07/02 04:54:23;;;;;;;4.83;3.00;;;16.50;98.00;;;;;;4955704;29;20521;-70
2023/07/02 04:56:51;;;;;;;5.47;3.43;;;16.50;98.00;;;;;;4956789;28;20821;-69
2023/07/02 04:59:18;;;;;;;13.03;3.40;;;16.40;98.00;;;;;;4955558;29;20474;-69
2023/07/02 05:01:45;;;;;;;8.60;3.53;;;16.40;98.00;;;;;;4956836;28;20457;-70
2023/07/02 05:04:14;;;;;;;5.87;3.57;;;16.40;98.00;;;;;;4956348;28;20930;-69
2023/07/02 05:06:41;;;;;;;6.33;3.50;;;16.30;98.00;;;;;;4956381;28;20525;-69
2023/07/02 05:09:09;;;;;;;5.80;3.27;;;16.30;98.00;;;;;;4956225;28;20462;-70
2023/07/02 05:11:38;;;;;;;7.10;2.93;;;16.40;98.00;;;;;;4956273;28;20485;-70
2023/07/02 05:14:05;;;;;;;6.10;3.10;;;16.60;98.00;;;;;;4954923;29;20953;-69
2023/07/02 05:16:32;;;;;;;4.43;3.03;;;16.70;98.00;;;;;;4956016;28;20462;-70
2023/07/02 05:18:59;;;;;;;7.93;3.50;;;16.70;98.00;;;;;;4956048;28;20587;-68
2023/07/02 05:21:27;;;;;;;6.23;2.80;;;16.80;98.00;;;;;;4956337;28;20815;-72
2023/07/02 05:23:54;;;;;;;8.57;3.07;;;16.80;98.00;;;;;;4955892;28;20458;-69
2023/07/02 05:26:21;;;;;;;6.20;2.83;;;16.90;98.00;;;;;;4955865;28;20493;-69
2023/07/02 05:28:48;;;;;;;6.70;2.83;;;17.00;98.00;;;;;;4955878;28;20466;-71
2023/07/02 05:31:15;;;;;;;5.03;2.90;;;16.90;98.00;;;;;;4955710;28;20514;-69
2023/07/02 05:33:42;;;;;;;7.70;3.00;;;17.00;98.00;;;;;;4955733;28;21019;-70
2023/07/02 05:36:09;;;;;;;8.73;3.47;;;17.10;98.00;;;;;;4955843;28;20463;-70
2023/07/02 05:38:38;;;;;;;5.93;2.93;;;17.30;98.00;;;;;;4955922;28;20459;-70
2023/07/02 05:41:07;;;;;;;6.40;3.23;;;17.30;98.00;;;;;;4955916;28;20461;-70
2023/07/02 05:43:35;;;;;;;11.20;3.50;;;17.40;98.00;;;;;;4954603;29;20558;-71
2023/07/02 05:46:02;;;;;;;5.00;2.93;;;17.30;98.00;;;;;;4954726;28;20856;-70
2023/07/02 05:48:29;;;;;;;9.53;3.30;;;17.50;98.00;;;;;;4956021;28;20450;-70
2023/07/02 05:50:56;;;;;;;5.30;2.93;;;17.50;98.00;;;;;;4955705;28;20466;-71
2023/07/02 05:53:24;;;;;;;5.10;2.77;;;17.60;98.00;;;;;;4955983;28;20520;-69
2023/07/02 05:55:53;;;;;;;6.80;2.70;;;17.70;98.00;;;;;;4955688;28;20462;-71
2023/07/02 05:58:20;;;;;;;4.30;2.80;;;17.80;98.00;;;;;;4955527;28;20462;-70
2023/07/02 06:00:49;;;;;;;4.70;2.70;;;17.90;98.00;;;;;;4954054;29;20458;-70
2023/07/02 06:03:19;;;;;;;4.50;2.77;;;18.00;98.00;;;;;;4955188;28;20496;-68
2023/07/02 06:05:48;;;;;;;5.10;2.60;;;18.00;98.00;;;;;;4955299;28;20545;-70
2023/07/02 06:08:16;;;;;;;5.23;2.57;;;18.00;98.00;;;;;;4955174;28;20498;-69
2023/07/02 06:10:47;;;;;;;4.87;2.70;;;17.90;98.00;;;;;;4955152;28;20545;-69
2023/07/02 06:13:15;;;;;;;5.40;3.30;;;17.90;98.00;;;;;;4954821;28;20490;-70
2023/07/02 06:15:43;;;;;;;5.07;3.20;;;17.90;98.00;;;;;;4955180;28;20462;-71
2023/07/02 06:18:10;;;;;;;4.57;2.53;;;18.00;98.00;;;;;;4954833;28;20461;-71
2023/07/02 06:20:37;;;;;;;4.73;3.00;;;17.90;98.00;;;;;;4955164;28;20481;-71
2023/07/02 06:23:04;;;;;;;7.50;3.23;;;17.90;98.00;;;;;;4954763;28;20826;-71
2023/07/02 06:25:32;;;;;;;4.73;2.70;;;17.90;98.00;;;;;;4954841;28;20486;-72
2023/07/02 06:28:00;;;;;;;6.13;2.87;;;18.00;98.00;;;;;;4954740;28;20517;-71
2023/07/02 06:30:28;;;;;;;4.27;2.87;;;18.00;98.00;;;;;;4954644;28;20462;-71
2023/07/02 06:32:56;;;;;;;5.03;3.10;;;18.00;98.00;;;;;;4954836;28;20458;-71
2023/07/02 06:35:23;;;;;;;6.57;3.47;;;18.10;98.00;;;;;;4954751;28;20533;-72
2023/07/02 06:37:50;;;;;;;8.53;3.27;;;18.20;98.00;;;;;;4954755;28;21035;-72
2023/07/02 06:40:17;;;;;;;7.93;3.80;;;18.30;98.00;;;;;;4954673;28;20528;-72
2023/07/02 06:42:44;;;;;;;11.50;3.37;;;18.40;98.00;;;;;;4954733;28;20508;-71
2023/07/02 06:45:11;;;;;;;6.43;3.53;;;18.50;98.00;;;;;;4954560;28;20521;-72
2023/07/02 06:47:40;;;;;;;5.70;3.40;;;18.50;98.00;;;;;;4954701;28;20469;-72
2023/07/02 06:50:07;;;;;;;9.80;3.60;;;18.50;98.00;;;;;;4954705;28;20454;-72
2023/07/02 06:52:36;;;;;;;7.97;3.00;;;18.50;98.00;;;;;;4954611;28;20841;-72
2023/07/02 06:55:04;;;;;;;5.47;3.30;;;18.50;98.00;;;;;;4954496;28;20473;-72
2023/07/02 06:57:31;;;;;;;7.13;3.27;;;18.50;98.00;;;;;;4952909;28;20462;-72
2023/07/02 07:00:03;;;;;;;7.20;3.50;;;18.50;98.00;;;;;;4954349;28;20462;-72
2023/07/02 07:02:30;;;;;;;7.10;3.60;;;18.50;98.00;;;;;;4954328;28;20470;-72
2023/07/02 07:04:59;;;;;;;6.80;2.93;;;18.50;98.00;;;;;;4953233;29;21173;-71
2023/07/02 07:07:26;;;;;;;5.70;3.27;;;18.70;98.00;;;;;;4952897;29;20463;-72
2023/07/02 07:09:53;;;;;;;8.63;4.50;;;18.70;98.00;;;;;;4954214;28;20454;-71
2023/07/02 07:12:20;;;;;;;7.33;3.37;;;18.80;98.00;;;;;;4954177;28;20473;-72
2023/07/02 07:14:48;;;;;;;5.27;3.33;;;18.90;98.00;;;;;;4954064;28;20462;-71
2023/07/02 07:17:15;;;;;;;10.27;4.63;;;19.00;98.00;;;;;;4954297;28;20586;-72
2023/07/02 07:19:42;;;;;;;11.63;5.03;;;19.00;98.00;;;;;;4954006;28;20462;-72
2023/07/02 07:22:11;;;;;;;9.73;4.23;;;18.90;98.00;;;;;;4953478;28;20980;-71
2023/07/02 07:24:38;;;;;;;11.60;4.83;;;18.70;98.00;;;;;;4953004;28;20465;-72
2023/07/02 07:27:06;;;;;;;9.80;4.20;;;18.70;98.00;;;;;;4953103;28;20458;-72
2023/07/02 07:29:33;;;;;;;8.77;4.00;;;18.60;98.00;;;;;;4953434;28;20824;-72
2023/07/02 07:32:00;;;;;;;10.67;5.00;;;18.60;98.00;;;;;;4951667;28;20590;-70
2023/07/02 07:34:28;;;;;;;10.23;5.00;;;18.60;98.00;;;;;;4953013;28;20525;-72
2023/07/02 07:36:55;;;;;;;9.37;4.40;;;18.70;98.00;;;;;;4953110;28;20469;-72
2023/07/02 07:39:23;;;;;;;9.80;4.33;;;18.80;98.00;;;;;;4953032;28;20470;-72
2023/07/02 07:41:50;;;;;;;10.30;4.17;;;18.90;98.00;;;;;;4953117;28;20458;-72
2023/07/02 07:44:17;;;;;;;9.57;4.97;;;18.90;98.00;;;;;;4953010;28;20808;-72
2023/07/02 07:46:44;;;;;;;14.67;4.77;;;18.90;98.00;;;;;;4953466;28;20541;-71
2023/07/02 07:49:11;;;;;;;13.13;4.60;;;18.90;98.00;;;;;;4952942;28;20461;-71
2023/07/02 07:51:38;;;;;;;9.33;4.47;;;19.00;98.00;;;;;;4953018;28;20469;-72
2023/07/02 07:54:06;;;;;;;11.97;4.33;;;19.30;98.00;;;;;;4952902;28;20478;-71
2023/07/02 07:56:34;;;;;;;10.10;4.50;;;19.20;98.00;;;;;;4953003;28;20485;-68
2023/07/02 07:59:01;;;;;;;11.07;4.87;;;19.30;98.00;;;;;;4952707;28;20509;-70
2023/07/02 08:01:28;;;;;;;12.87;4.50;;;19.30;98.00;;;;;;4953565;28;20525;-72
2023/07/02 08:04:00;;;;;;;8.70;4.43;;;19.40;98.00;;;;;;4952498;29;20806;-69
2023/07/02 08:06:28;;;;;;;11.10;4.90;;;19.30;98.00;;;;;;4953824;28;20490;-70
2023/07/02 08:08:55;;;;;;;15.33;5.40;;;19.40;98.00;;;;;;4953857;28;20929;-69
2023/07/02 08:11:22;;;;;;;11.30;4.30;;;19.40;98.00;;;;;;4956551;28;20470;-72
2023/07/02 08:13:50;;;;;;;9.80;4.57;;;19.50;98.00;;;;;;4956526;28;20508;-69
2023/07/02 08:16:17;;;;;;;9.70;4.53;;;19.50;98.00;;;;;;4957176;28;20512;-72
2023/07/02 08:18:44;;;;;;;9.30;4.30;;;19.60;98.00;;;;;;4956437;28;20461;-73
2023/07/02 08:21:12;;;;;;;11.60;5.03;;;19.50;98.00;;;;;;4956728;28;21011;-74
2023/07/02 08:23:39;;;;;;;10.83;4.50;;;19.70;98.00;;;;;;4956175;28;20994;-74
2023/07/02 08:26:06;;;;;;;14.43;5.67;;;19.90;98.00;;;;;;4956452;28;20492;-74
2023/07/02 08:28:34;;;;;;;11.70;5.20;;;20.00;98.00;;;;;;4956297;28;20454;-74
2023/07/02 08:31:02;;;;;;;12.60;4.77;;;20.10;98.00;;;;;;4956339;28;20465;-74
2023/07/02 08:33:29;;;;;;;11.50;4.87;;;20.20;98.00;;;;;;4956134;28;20462;-72
2023/07/02 08:35:57;;;;;;;14.60;5.77;;;20.40;98.00;;;;;;4956120;28;20450;-74
2023/07/02 08:38:24;;;;;;;13.93;5.30;;;20.40;98.00;;;;;;4956205;28;20462;-74
2023/07/02 08:40:51;;;;;;;15.83;6.40;;;20.30;98.00;;;;;;4956253;28;20481;-73
2023/07/02 08:43:19;;;;;;;13.77;5.77;;;20.30;98.00;;;;;;4956091;28;20979;-74
2023/07/02 08:45:46;;;;;;;14.27;5.87;;;20.30;98.00;;;;;;4956127;28;20489;-73
2023/07/02 08:48:15;;;;;;;14.47;5.70;;;20.40;98.00;;;;;;4955980;28;20853;-73
2023/07/02 08:50:43;;;;;;;12.87;6.07;;;20.50;98.00;;;;;;4956135;28;20458;-72
2023/07/02 08:53:10;;;;;;;16.47;6.13;;;20.70;98.00;;;;;;4955874;28;20465;-73
2023/07/02 08:55:38;;;;;;;18.63;6.30;;;20.80;98.00;;;;;;4955908;28;20472;-73
2023/07/02 08:58:04;;;;;;;21.03;5.57;;;20.90;98.00;;;;;;4955783;28;20509;-73
2023/07/02 09:00:37;;;;;;;13.03;5.47;;;20.90;98.00;;;;;;4955747;28;20458;-73
2023/07/02 09:03:15;;;;;;;13.67;4.87;;;20.90;98.00;;;;;;4956001;28;21044;-74
2023/07/02 09:06:20;;;;;;;13.80;6.17;;;21.10;98.00;;;;;;4955638;28;20569;-73
2023/07/02 09:08:48;;;;;;;13.70;5.90;;;21.30;98.00;;;;;;4953136;28;20450;-74
2023/07/02 09:11:16;;;;;;;15.10;6.40;;;21.50;98.00;;;;;;4936378;29;20471;-74
2023/07/02 09:13:45;;;;;;;14.17;5.50;;;21.70;98.00;;;;;;4936570;29;20455;-73
2023/07/02 09:16:26;;;;;;;16.50;6.30;;;21.90;98.00;;;;;;4936278;29;20475;-73
2023/07/02 09:19:02;;;;;;;12.43;5.77;;;21.90;98.00;;;;;;4936184;29;20459;-73
2023/07/02 09:21:39;;;;;;;12.40;5.57;;;21.90;98.00;;;;;;4936205;29;20467;-73
2023/07/02 09:24:14;;;;;;;15.57;6.10;;;22.00;98.00;;;;;;4936276;29;20566;-74
2023/07/02 09:26:44;;;;;;;16.80;6.63;;;21.90;98.00;;;;;;4936112;29;21077;-73
2023/07/02 09:29:12;;;;;;;10.40;5.50;;;22.10;98.00;;;;;;4936021;29;20873;-74
2023/07/02 09:31:47;;;;;;;15.00;5.57;;;22.20;98.00;;;;;;4936166;29;20467;-73
2023/07/02 09:34:18;;;;;;;18.57;6.07;;;22.30;97.80;;;;;;4936109;29;20542;-73
2023/07/02 09:36:45;;;;;;;12.83;5.63;;;22.30;98.00;;;;;;4934973;29;20460;-73
2023/07/02 09:39:15;;;;;;;18.43;5.43;;;22.10;98.00;;;;;;4936024;29;20514;-73
2023/07/02 09:41:43;;;;;;;12.67;5.53;;;21.80;97.70;;;;;;4936082;29;20455;-72
2023/07/02 09:44:12;;;;;;;11.47;5.30;;;21.90;98.00;;;;;;4935974;29;20455;-72
2023/07/02 09:46:46;;;;;;;10.83;5.20;;;22.10;97.80;;;;;;4935742;29;20483;-72
2023/07/02 09:49:17;;;;;;;11.33;5.40;;;22.20;96.10;;;;;;4935743;29;20467;-73
2023/07/02 09:51:47;;;;;;;13.57;5.60;;;22.20;96.10;;;;;;4935873;29;20463;-73
2023/07/02 09:54:15;;;;;;;14.47;5.60;;;22.10;96.20;;;;;;4935424;29;20470;-73
2023/07/02 09:56:44;;;;;;;13.77;5.40;;;22.30;95.10;;;;;;4935538;29;20451;-74
2023/07/02 09:59:12;;;;;;;9.23;5.00;;;22.40;95.00;;;;;;4935409;29;20460;-72
2023/07/02 10:01:39;;;;;;;12.10;5.67;;;22.50;95.40;;;;;;4935549;29;20884;-73
2023/07/02 10:04:14;;;;;;;11.60;5.73;;;22.40;94.90;;;;;;4935463;29;20848;-73
2023/07/02 10:06:50;;;;;;;10.90;5.40;;;22.60;94.70;;;;;;4935159;29;20921;-73
2023/07/02 10:09:17;;;;;;;16.77;6.10;;;22.40;94.70;;;;;;4935557;29;20568;-73
2023/07/02 10:11:45;;;;;;;15.87;5.87;;;22.50;95.60;;;;;;4935235;29;20459;-73
2023/07/02 10:14:14;;;;;;;16.90;6.07;;;22.50;94.70;;;;;;4935335;29;20456;-73
2023/07/02 10:16:52;;;;;;;13.13;5.57;;;22.60;95.10;;;;;;4935363;29;20859;-73
2023/07/02 10:19:22;;;;;;;14.20;6.10;;;22.70;95.40;;;;;;4935230;29;20462;-74
2023/07/02 10:22:03;;;;;;;12.27;5.73;;;22.80;95.10;;;;;;4935153;29;20459;-73
2023/07/02 10:24:31;;;;;;;13.40;5.60;;;22.70;94.40;;;;;;4935132;29;20462;-72
2023/07/02 10:27:00;;;;;;;13.90;6.13;;;22.80;94.70;;;;;;4934943;29;20847;-73
2023/07/02 10:29:28;;;;;;;13.00;5.60;;;22.80;95.20;;;;;;4935596;29;20949;-74
2023/07/02 10:31:56;;;;;;;14.13;6.50;;;23.10;95.00;;;;;;4935634;29;20823;-73
2023/07/02 10:34:31;;;;;;;12.33;6.07;;;23.20;94.50;;;;;;4935538;29;20463;-73
2023/07/02 10:36:59;;;;;;;12.53;6.53;;;23.10;92.60;;;;;;4934440;29;20462;-73
2023/07/02 10:39:29;;;;;;;11.20;5.80;;;23.20;93.70;;;;;;4935369;29;20466;-73
2023/07/02 10:42:05;;;;;;;11.50;5.57;;;23.10;94.30;;;;;;4935568;29;20459;-73
2023/07/02 10:44:32;;;;;;;12.63;5.60;;;23.00;93.10;;;;;;4935185;29;20455;-73
2023/07/02 10:47:00;;;;;;;13.50;5.97;;;23.10;93.00;;;;;;4935202;29;20494;-73
2023/07/02 10:49:32;;;;;;;15.07;5.90;;;23.10;93.10;;;;;;4935280;29;20526;-74
2023/07/02 10:52:00;;;;;;;13.50;6.37;;;23.30;94.50;;;;;;4935415;29;20538;-73
2023/07/02 10:54:40;;;;;;;11.17;5.30;;;23.40;93.60;;;;;;4935194;29;20484;-73
2023/07/02 10:57:07;;;;;;;15.37;6.20;;;23.80;93.90;;;;;;4934908;29;20538;-72
2023/07/02 10:59:34;;;;;;;13.97;6.23;;;23.90;91.30;;;;;;4935292;29;20542;-74
2023/07/02 11:02:03;;;;;;;14.77;6.30;;;23.70;92.10;;;;;;4935193;29;20471;-74
2023/07/02 11:04:30;;;;;;;13.13;6.27;;;23.80;92.90;;;;;;4934078;29;20546;-72
2023/07/02 11:06:58;;;;;;;13.50;6.27;;;23.70;93.00;;;;;;4935042;29;20538;-73
2023/07/02 11:09:25;;;;;;;12.03;5.80;;;23.60;93.70;;;;;;4935297;29;20463;-73
2023/07/02 11:11:55;;;;;;;12.40;5.63;;;23.50;92.50;;;;;;4933810;29;20471;-73
2023/07/02 11:14:30;;;;;;;12.80;5.70;;;23.60;93.00;;;;;;4934904;29;20459;-74
2023/07/02 11:16:57;;;;;;;15.10;6.37;;;23.40;93.20;;;;;;4935122;29;20481;-73
2023/07/02 11:19:25;;;;;;;14.97;6.40;;;23.50;93.90;;;;;;4934963;29;20448;-73
2023/07/02 11:21:53;;;;;;;18.27;6.93;;;23.50;92.50;;;;;;4935226;29;20858;-73
2023/07/02 11:24:29;;;;;;;12.60;6.47;;;23.40;91.20;;;;;;4934783;29;20463;-72
2023/07/02 11:26:59;;;;;;;13.60;6.60;;;23.60;92.30;;;;;;4934244;29;20491;-73
2023/07/02 11:29:26;;;;;;;17.40;7.20;;;24.00;92.60;;;;;;4933587;29;20459;-72
2023/07/02 11:31:55;;;;;;;13.20;5.97;;;24.40;90.90;;;;;;4934933;29;20471;-73
2023/07/02 11:34:23;;;;;;;11.73;6.40;;;24.50;89.80;;;;;;4934474;29;20463;-73
2023/07/02 11:36:53;;;;;;;16.70;7.07;;;24.50;90.60;;;;;;4934652;29;20510;-73
2023/07/02 11:39:20;;;;;;;14.40;5.70;;;24.90;90.80;;;;;;4934479;29;20502;-73
2023/07/02 11:41:50;;;;;;;13.40;5.50;;;25.40;90.50;;;;;;4934750;29;20455;-74
2023/07/02 11:44:18;;;;;;;14.40;5.80;;;26.00;85.50;;;;;;4936867;29;20490;-73
2023/07/02 11:46:46;;;;;;;15.37;6.90;;;26.20;86.10;;;;;;4938307;29;20487;-73
2023/07/02 11:49:14;;;;;;;14.20;5.77;;;25.80;85.00;;;;;;4937289;29;21102;-74
2023/07/02 11:51:41;;;;;;;14.77;6.83;;;25.10;86.20;;;;;;4938819;29;20892;-74
2023/07/02 11:54:08;;;;;;;12.00;6.20;;;25.10;86.10;;;;;;4938445;29;20467;-73
2023/07/02 11:56:38;;;;;;;12.80;6.20;;;25.40;86.70;;;;;;4938479;29;20463;-73
2023/07/02 11:59:06;;;;;;;12.87;6.37;;;25.80;85.60;;;;;;4938491;29;20470;-73
2023/07/02 12:01:35;;;;;;;13.30;6.33;;;26.40;85.60;;;;;;4937439;29;20526;-74
2023/07/02 12:04:02;;;;;;;14.80;6.70;;;26.80;83.70;;;;;;4938470;29;20953;-74
2023/07/02 12:06:29;;;;;;;15.97;6.10;;;27.10;84.20;;;;;;4938515;29;20534;-74
2023/07/02 12:08:56;;;;;;;15.13;6.73;;;27.50;81.50;;;;;;4938180;29;20470;-74
2023/07/02 12:11:23;;;;;;;11.63;6.40;;;27.90;81.70;;;;;;4938332;29;20530;-75
2023/07/02 12:13:50;;;;;;;13.40;6.00;;;28.10;79.30;;;;;;4937141;29;20470;-74
2023/07/02 12:16:17;;;;;;;12.93;6.10;;;28.20;79.70;;;;;;4937186;29;20797;-74
2023/07/02 12:18:46;;;;;;;14.33;6.33;;;28.00;77.00;;;;;;4938163;29;20475;-74
2023/07/02 12:21:13;;;;;;;11.73;6.20;;;28.00;78.50;;;;;;4938340;29;20454;-74
2023/07/02 12:23:40;;;;;;;20.57;6.57;;;28.00;78.90;;;;;;4938363;29;20455;-74
2023/07/02 12:26:07;;;;;;;12.27;5.50;;;28.00;80.30;;;;;;4938183;29;20822;-75
2023/07/02 12:28:34;;;;;;;12.03;6.10;;;28.00;78.10;;;;;;4937929;29;20491;-74
2023/07/02 12:31:04;;;;;;;18.30;6.90;;;27.70;78.80;;;;;;4937764;29;20474;-74
2023/07/02 12:33:31;;;;;;;15.40;6.30;;;27.40;79.50;;;;;;4937709;29;20497;-73
2023/07/02 12:36:03;;;;;;;16.37;6.30;;;27.10;80.60;;;;;;4937610;29;20466;-73
2023/07/02 12:38:30;;;;;;;11.73;6.33;;;27.20;80.30;;;;;;4937707;29;20474;-73
2023/07/02 12:40:57;;;;;;;13.23;6.70;;;26.90;79.90;;;;;;4937642;29;20473;-74
2023/07/02 12:43:24;;;;;;;15.80;6.83;;;26.60;80.60;;;;;;4937506;29;20463;-74
2023/07/02 12:45:51;;;;;;;16.47;6.47;;;26.20;80.00;;;;;;4937539;29;20526;-73
2023/07/02 12:48:18;;;;;;;11.70;6.03;;;26.00;79.80;;;;;;4937473;29;20494;-74